EZY42GP LEAL-EGKK
Flight info
| Callsign | EZY42GP |
|---|---|
| Flight time | N/A |
| Altitude | 36000 |
| Route | MITOS N608 COMPI Y90 USKAR DCT MOPAS DCT GIROM DCT GONUP DCT MANAK DCT EPAPU UM184 EKRAS UT507 REVTU/N0458F340 UP88 VASUX |
| Aircraft | A320/M-SDE3FGHIRWY/LB1 |
Departure
| Time | 2026-04-28 18:55 |
|---|---|
| Airport | Alicante-Elche Miguel Hernández Airport (LEAL) |
Arrival
| Time | N/A |
|---|---|
| Airport | London Gatwick Airport (EGKK) |
| Time | Latitude | Longitude | Altitude | Speed | Heading |
|---|---|---|---|---|---|
| 2026-04-28 18:39 | 38.28588 | -0.55719 | 100 ft | 0 kts | 10° |
| 2026-04-28 18:41 | 38.28587 | -0.55719 | 99 ft | 0 kts | 10° |
| 2026-04-28 18:46 | 38.28587 | -0.55720 | 99 ft | 2 kts | 10° |
| 2026-04-28 18:47 | 38.28562 | -0.55724 | 98 ft | 4 kts | 2° |
| 2026-04-28 18:47 | 38.28535 | -0.55722 | 97 ft | 4 kts | 341° |
| 2026-04-28 18:47 | 38.28516 | -0.55706 | 96 ft | 4 kts | 287° |
| 2026-04-28 18:47 | 38.28517 | -0.55718 | 96 ft | 4 kts | 280° |
| 2026-04-28 18:48 | 38.28521 | -0.55744 | 98 ft | 0 kts | 280° |
| 2026-04-28 18:49 | 38.28522 | -0.55755 | 98 ft | 6 kts | 280° |
| 2026-04-28 18:50 | 38.28538 | -0.55863 | 99 ft | 17 kts | 280° |
| 2026-04-28 18:50 | 38.28545 | -0.55992 | 100 ft | 12 kts | 239° |
| 2026-04-28 18:50 | 38.28487 | -0.56023 | 103 ft | 6 kts | 189° |
| 2026-04-28 18:50 | 38.28452 | -0.56031 | 106 ft | 8 kts | 190° |
| 2026-04-28 18:51 | 38.28433 | -0.56081 | 108 ft | 6 kts | 278° |
| 2026-04-28 18:51 | 38.28442 | -0.56156 | 108 ft | 15 kts | 279° |
| 2026-04-28 18:51 | 38.28469 | -0.56346 | 112 ft | 27 kts | 280° |
| 2026-04-28 18:51 | 38.28507 | -0.56623 | 120 ft | 36 kts | 279° |
| 2026-04-28 18:52 | 38.28556 | -0.56967 | 135 ft | 42 kts | 280° |
| 2026-04-28 18:52 | 38.28592 | -0.57215 | 146 ft | 37 kts | 279° |
| 2026-04-28 18:52 | 38.28621 | -0.57452 | 156 ft | 13 kts | 266° |
| 2026-04-28 18:52 | 38.28594 | -0.57504 | 155 ft | 9 kts | 213° |
| 2026-04-28 18:53 | 38.28545 | -0.57514 | 157 ft | 5 kts | 183° |
| 2026-04-28 18:53 | 38.28514 | -0.57518 | 157 ft | 6 kts | 186° |
| 2026-04-28 18:53 | 38.28458 | -0.57502 | 157 ft | 9 kts | 134° |
| 2026-04-28 18:53 | 38.28442 | -0.57431 | 154 ft | 0 kts | 98° |
| 2026-04-28 18:54 | 38.28442 | -0.57430 | 154 ft | 1 kts | 98° |
| 2026-04-28 18:54 | 38.28437 | -0.57390 | 152 ft | 15 kts | 98° |
| 2026-04-28 18:54 | 38.28373 | -0.56921 | 125 ft | 90 kts | 100° |
| 2026-04-28 18:54 | 38.28226 | -0.55876 | 106 ft | 146 kts | 100° |
| 2026-04-28 18:55 | 38.28032 | -0.54496 | 509 ft | 161 kts | 100° |
| 2026-04-28 18:55 | 38.27809 | -0.53097 | 1255 ft | 160 kts | 100° |
| 2026-04-28 18:55 | 38.27564 | -0.51648 | 1727 ft | 178 kts | 99° |
| 2026-04-28 18:55 | 38.27396 | -0.50005 | 2013 ft | 198 kts | 80° |
| 2026-04-28 18:56 | 38.27999 | -0.48339 | 2333 ft | 222 kts | 56° |
| 2026-04-28 18:56 | 38.28914 | -0.46619 | 2810 ft | 245 kts | 56° |
| 2026-04-28 18:56 | 38.29887 | -0.44788 | 3562 ft | 253 kts | 57° |
| 2026-04-28 18:56 | 38.30880 | -0.42905 | 4439 ft | 259 kts | 57° |
| 2026-04-28 18:57 | 38.31889 | -0.40977 | 5300 ft | 264 kts | 58° |
| 2026-04-28 18:57 | 38.32739 | -0.38886 | 6113 ft | 268 kts | 70° |
| 2026-04-28 18:57 | 38.33431 | -0.36654 | 6914 ft | 274 kts | 71° |
| 2026-04-28 18:57 | 38.34130 | -0.34367 | 7686 ft | 280 kts | 71° |
| 2026-04-28 18:58 | 38.34843 | -0.32029 | 8464 ft | 286 kts | 71° |
| 2026-04-28 18:58 | 38.35576 | -0.29642 | 9251 ft | 292 kts | 71° |
| 2026-04-28 18:58 | 38.36328 | -0.27208 | 10007 ft | 298 kts | 71° |
| 2026-04-28 18:58 | 38.37148 | -0.24675 | 10349 ft | 321 kts | 70° |
| 2026-04-28 18:59 | 38.38051 | -0.21962 | 10585 ft | 344 kts | 69° |
| 2026-04-28 18:59 | 38.39024 | -0.19073 | 10881 ft | 363 kts | 69° |
| 2026-04-28 18:59 | 38.40033 | -0.16090 | 11494 ft | 370 kts | 69° |
| 2026-04-28 18:59 | 38.41054 | -0.13062 | 12179 ft | 374 kts | 69° |
| 2026-04-28 19:00 | 38.42086 | -0.10001 | 12881 ft | 378 kts | 68° |
| 2026-04-28 19:00 | 38.43402 | -0.07072 | 13563 ft | 385 kts | 54° |
| 2026-04-28 19:00 | 38.45252 | -0.04582 | 14178 ft | 391 kts | 40° |
| 2026-04-28 19:00 | 38.47548 | -0.02707 | 14787 ft | 395 kts | 25° |
| 2026-04-28 19:01 | 38.50161 | -0.01591 | 15381 ft | 398 kts | 10° |
| 2026-04-28 19:01 | 38.52883 | -0.01305 | 15973 ft | 400 kts | 359° |
| 2026-04-28 19:01 | 38.55677 | -0.01297 | 16576 ft | 403 kts | 359° |
| 2026-04-28 19:01 | 38.58493 | -0.01288 | 17171 ft | 406 kts | 359° |
| 2026-04-28 19:02 | 38.61332 | -0.01277 | 17748 ft | 410 kts | 359° |
| 2026-04-28 19:02 | 38.64194 | -0.01260 | 18301 ft | 413 kts | 359° |
| 2026-04-28 19:02 | 38.67078 | -0.01237 | 18836 ft | 415 kts | 359° |
| 2026-04-28 19:02 | 38.69974 | -0.01214 | 19364 ft | 417 kts | 359° |
| 2026-04-28 19:03 | 38.72889 | -0.01191 | 19864 ft | 420 kts | 359° |
| 2026-04-28 19:03 | 38.75815 | -0.01171 | 20375 ft | 422 kts | 359° |
| 2026-04-28 19:03 | 38.78759 | -0.01154 | 20869 ft | 424 kts | 359° |
| 2026-04-28 19:03 | 38.81718 | -0.01137 | 21350 ft | 426 kts | 359° |
| 2026-04-28 19:04 | 38.84692 | -0.01117 | 21831 ft | 429 kts | 359° |
| 2026-04-28 19:04 | 38.87685 | -0.01095 | 22303 ft | 431 kts | 359° |
| 2026-04-28 19:04 | 38.90691 | -0.01073 | 22759 ft | 434 kts | 359° |
| 2026-04-28 19:04 | 38.93719 | -0.01051 | 23207 ft | 436 kts | 359° |
| 2026-04-28 19:05 | 38.96762 | -0.01028 | 23621 ft | 439 kts | 359° |
| 2026-04-28 19:05 | 38.99820 | -0.01008 | 23989 ft | 441 kts | 359° |
| 2026-04-28 19:05 | 39.02895 | -0.00991 | 24359 ft | 443 kts | 359° |
| 2026-04-28 19:05 | 39.05980 | -0.00974 | 24721 ft | 444 kts | 359° |
| 2026-04-28 19:06 | 39.09078 | -0.00954 | 25082 ft | 446 kts | 360° |
| 2026-04-28 19:06 | 39.11134 | -0.00941 | 25316 ft | 448 kts | 360° |
| 2026-04-28 19:06 | 39.15313 | -0.00912 | 25786 ft | 450 kts | 360° |
| 2026-04-28 19:06 | 39.18454 | -0.00891 | 26135 ft | 452 kts | 359° |
| 2026-04-28 19:07 | 39.21604 | -0.00873 | 26474 ft | 454 kts | 360° |
| 2026-04-28 19:07 | 39.24772 | -0.00856 | 26807 ft | 456 kts | 359° |
| 2026-04-28 19:07 | 39.27949 | -0.00836 | 27116 ft | 458 kts | 0° |
| 2026-04-28 19:07 | 39.31140 | -0.00813 | 27441 ft | 459 kts | 360° |
| 2026-04-28 19:08 | 39.34340 | -0.00638 | 27744 ft | 462 kts | 6° |
| 2026-04-28 19:08 | 39.37503 | 0.00111 | 28041 ft | 464 kts | 14° |
| 2026-04-28 19:08 | 39.40608 | 0.01259 | 28333 ft | 465 kts | 15° |
| 2026-04-28 19:08 | 39.43724 | 0.02417 | 28628 ft | 467 kts | 15° |
| 2026-04-28 19:09 | 39.46850 | 0.03570 | 28980 ft | 467 kts | 15° |
| 2026-04-28 19:09 | 39.49969 | 0.04716 | 29415 ft | 465 kts | 15° |
| 2026-04-28 19:09 | 39.53080 | 0.05860 | 29868 ft | 464 kts | 15° |
| 2026-04-28 19:09 | 39.56178 | 0.07004 | 30259 ft | 462 kts | 15° |
| 2026-04-28 19:10 | 39.59264 | 0.08148 | 30616 ft | 461 kts | 15° |
| 2026-04-28 19:10 | 39.62351 | 0.09293 | 30924 ft | 461 kts | 15° |
| 2026-04-28 19:10 | 39.65437 | 0.10438 | 31253 ft | 461 kts | 15° |
| 2026-04-28 19:10 | 39.68515 | 0.11582 | 31599 ft | 460 kts | 15° |
| 2026-04-28 19:11 | 39.71588 | 0.12727 | 31940 ft | 459 kts | 16° |
| 2026-04-28 19:11 | 39.74661 | 0.13873 | 32279 ft | 459 kts | 16° |
| 2026-04-28 19:11 | 39.77728 | 0.15015 | 32614 ft | 458 kts | 16° |
| 2026-04-28 19:11 | 39.80790 | 0.16154 | 32957 ft | 458 kts | 15° |
| 2026-04-28 19:12 | 39.83855 | 0.17294 | 33219 ft | 459 kts | 15° |
| 2026-04-28 19:12 | 39.86928 | 0.18442 | 33501 ft | 460 kts | 15° |
| 2026-04-28 19:12 | 39.90001 | 0.19596 | 33820 ft | 460 kts | 15° |
| 2026-04-28 19:12 | 39.93072 | 0.20748 | 34116 ft | 459 kts | 15° |
| 2026-04-28 19:13 | 39.96140 | 0.21898 | 34417 ft | 458 kts | 15° |
| 2026-04-28 19:13 | 39.99203 | 0.23047 | 34703 ft | 458 kts | 15° |
| 2026-04-28 19:13 | 40.02266 | 0.24198 | 34981 ft | 457 kts | 15° |
| 2026-04-28 19:13 | 40.05319 | 0.25345 | 35240 ft | 457 kts | 14° |
| 2026-04-28 19:14 | 40.08375 | 0.26495 | 35483 ft | 457 kts | 14° |
| 2026-04-28 19:14 | 40.11435 | 0.27644 | 35737 ft | 457 kts | 14° |
| 2026-04-28 19:14 | 40.14489 | 0.28791 | 35910 ft | 457 kts | 14° |
| 2026-04-28 19:14 | 40.17554 | 0.29942 | 35955 ft | 459 kts | 14° |
| 2026-04-28 19:15 | 40.23696 | 0.32249 | 35941 ft | 460 kts | 14° |
| 2026-04-28 19:15 | 40.28810 | 0.34183 | 35949 ft | 461 kts | 14° |
| 2026-04-28 19:16 | 40.36015 | 0.36916 | 35956 ft | 461 kts | 14° |
| 2026-04-28 19:16 | 40.42183 | 0.39261 | 35947 ft | 462 kts | 14° |
| 2026-04-28 19:17 | 40.48322 | 0.41602 | 35963 ft | 463 kts | 14° |
| 2026-04-28 19:17 | 40.54509 | 0.43962 | 35957 ft | 463 kts | 14° |
| 2026-04-28 19:18 | 40.60709 | 0.46320 | 35944 ft | 464 kts | 14° |
| 2026-04-28 19:18 | 40.66907 | 0.48695 | 35949 ft | 464 kts | 14° |
| 2026-04-28 19:19 | 40.73109 | 0.51085 | 35962 ft | 464 kts | 14° |
| 2026-04-28 19:19 | 40.79316 | 0.53477 | 35955 ft | 465 kts | 14° |
| 2026-04-28 19:20 | 40.85521 | 0.55869 | 35965 ft | 464 kts | 14° |
| 2026-04-28 19:20 | 40.91720 | 0.58265 | 35971 ft | 464 kts | 14° |
| 2026-04-28 19:21 | 40.97918 | 0.60656 | 35958 ft | 464 kts | 14° |
| 2026-04-28 19:21 | 41.04111 | 0.63047 | 35957 ft | 464 kts | 14° |
| 2026-04-28 19:22 | 41.09261 | 0.65050 | 35948 ft | 464 kts | 14° |
| 2026-04-28 19:22 | 41.16498 | 0.67877 | 35956 ft | 464 kts | 14° |
| 2026-04-28 19:23 | 41.22693 | 0.70289 | 35944 ft | 464 kts | 14° |
| 2026-04-28 19:23 | 41.28886 | 0.72698 | 35942 ft | 463 kts | 13° |
| 2026-04-28 19:24 | 41.35073 | 0.75112 | 35939 ft | 464 kts | 13° |
| 2026-04-28 19:24 | 41.41263 | 0.77548 | 35947 ft | 464 kts | 14° |
| 2026-04-28 19:25 | 41.47465 | 0.79982 | 35939 ft | 465 kts | 14° |
| 2026-04-28 19:25 | 41.53665 | 0.82425 | 35929 ft | 465 kts | 14° |
| 2026-04-28 19:26 | 41.59872 | 0.84874 | 35936 ft | 465 kts | 13° |
| 2026-04-28 19:26 | 41.66082 | 0.87330 | 35934 ft | 466 kts | 13° |
| 2026-04-28 19:27 | 41.72254 | 0.89774 | 35934 ft | 466 kts | 13° |
| 2026-04-28 19:27 | 41.78472 | 0.92244 | 35961 ft | 466 kts | 13° |
| 2026-04-28 19:28 | 41.84698 | 0.94723 | 35923 ft | 467 kts | 13° |
| 2026-04-28 19:28 | 41.90932 | 0.97208 | 35905 ft | 468 kts | 13° |
| 2026-04-28 19:29 | 41.96167 | 0.99291 | 35897 ft | 469 kts | 13° |
| 2026-04-28 19:29 | 42.03531 | 1.02228 | 35902 ft | 481 kts | 13° |
| 2026-04-28 19:30 | 42.09975 | 1.04807 | 35911 ft | 484 kts | 13° |
| 2026-04-28 19:30 | 42.16556 | 1.06203 | 35930 ft | 476 kts | 356° |
| 2026-04-28 19:31 | 42.23143 | 1.05655 | 35979 ft | 475 kts | 352° |
| 2026-04-28 19:31 | 42.29752 | 1.04942 | 35986 ft | 477 kts | 352° |
| 2026-04-28 19:32 | 42.36362 | 1.04222 | 35989 ft | 476 kts | 352° |
| 2026-04-28 19:32 | 42.42968 | 1.03495 | 35996 ft | 476 kts | 352° |
| 2026-04-28 19:33 | 42.49580 | 1.02777 | 35997 ft | 476 kts | 351° |
| 2026-04-28 19:33 | 42.56192 | 1.02050 | 36003 ft | 477 kts | 351° |
| 2026-04-28 19:34 | 42.62807 | 1.01331 | 36004 ft | 477 kts | 352° |
| 2026-04-28 19:34 | 42.69423 | 1.00613 | 35999 ft | 477 kts | 351° |
| 2026-04-28 19:35 | 42.76043 | 0.99886 | 36003 ft | 477 kts | 350° |
| 2026-04-28 19:35 | 42.82469 | 0.98021 | 35991 ft | 471 kts | 341° |
| 2026-04-28 19:36 | 42.88832 | 0.95815 | 35990 ft | 472 kts | 341° |
| 2026-04-28 19:36 | 42.95202 | 0.93620 | 35991 ft | 472 kts | 342° |
| 2026-04-28 19:37 | 42.99417 | 0.92173 | 35991 ft | 472 kts | 341° |
| 2026-04-28 19:37 | 43.07889 | 0.89237 | 35994 ft | 472 kts | 341° |
| 2026-04-28 19:38 | 43.14252 | 0.87014 | 35987 ft | 472 kts | 341° |
| 2026-04-28 19:38 | 43.20618 | 0.84795 | 35972 ft | 472 kts | 341° |
| 2026-04-28 19:39 | 43.26984 | 0.82579 | 35970 ft | 472 kts | 341° |
| 2026-04-28 19:39 | 43.32321 | 0.80722 | 35966 ft | 472 kts | 341° |